Time;durP1;ratioP1;P1;durP2;ratioP2;P2;SDS_P1;SDS_P2;PMS_P1;PMS_P2;Temp;Humidity;BMP_temperature;BMP_pressure;BME280_temperature;BME280_humidity;BME280_pressure;Samples;Min_cycle;Max_cycle;Signal;HPM_P1;HPM_P2
2022/04/28 00:00:59;;;;;;;10.25;8.80;;;8.50;69.10;;;;;;5056907;28;20144;-64
2022/04/28 00:03:25;;;;;;;10.90;8.65;;;8.50;69.20;;;;;;5054232;28;20120;-65
2022/04/28 00:05:51;;;;;;;11.20;9.55;;;8.40;69.20;;;;;;5057642;28;20524;-65
2022/04/28 00:08:17;;;;;;;11.88;9.35;;;8.50;69.30;;;;;;5060800;28;20117;-66
2022/04/28 00:10:43;;;;;;;11.02;9.15;;;8.40;69.20;;;;;;5058196;28;20032;-65
2022/04/28 00:13:10;;;;;;;11.88;9.57;;;8.40;69.20;;;;;;5060072;28;20429;-65
2022/04/28 00:15:36;;;;;;;11.38;9.35;;;8.40;69.30;;;;;;5059842;28;20501;-65
2022/04/28 00:18:02;;;;;;;13.68;9.15;;;8.30;69.30;;;;;;5056647;28;20086;-65
2022/04/28 00:20:27;;;;;;;12.15;9.70;;;8.30;69.30;;;;;;5056118;28;20559;-65
2022/04/28 00:22:53;;;;;;;12.38;9.50;;;8.30;69.70;;;;;;5058703;28;20036;-65
2022/04/28 00:25:21;;;;;;;10.55;8.80;;;8.30;70.10;;;;;;5053800;28;20048;-65
2022/04/28 00:27:46;;;;;;;10.70;9.20;;;8.30;70.20;;;;;;5058269;28;20067;-65
2022/04/28 00:30:12;;;;;;;12.85;9.75;;;8.30;70.40;;;;;;5059834;28;20061;-65
2022/04/28 00:32:38;;;;;;;11.50;8.85;;;8.30;70.60;;;;;;5055039;28;20082;-65
2022/04/28 00:35:03;;;;;;;10.65;8.68;;;8.40;70.70;;;;;;5053780;28;20039;-65
2022/04/28 00:37:32;;;;;;;9.85;8.60;;;8.40;70.60;;;;;;5057075;28;20113;-65
2022/04/28 00:39:58;;;;;;;9.60;8.60;;;8.40;70.50;;;;;;5055560;28;20110;-64
2022/04/28 00:42:23;;;;;;;12.60;9.65;;;8.50;70.40;;;;;;5054319;28;20079;-64
2022/04/28 00:44:49;;;;;;;10.73;9.05;;;8.50;70.40;;;;;;5057041;28;20036;-64
2022/04/28 00:47:15;;;;;;;10.63;8.85;;;8.50;70.10;;;;;;5055740;28;20040;-65
2022/04/28 00:52:27;;;;;;;11.20;9.50;;;8.50;69.70;;;;;;5057250;28;20036;-64
2022/04/28 00:54:54;;;;;;;11.48;9.57;;;8.40;69.50;;;;;;5054900;28;20505;-65
2022/04/28 00:57:21;;;;;;;11.95;9.15;;;8.40;69.80;;;;;;5054804;28;21659;-65
2022/04/28 00:59:48;;;;;;;11.10;9.07;;;8.30;69.90;;;;;;5055722;28;20028;-66
2022/04/28 01:02:17;;;;;;;11.45;9.35;;;8.30;69.90;;;;;;5054072;28;20124;-65
2022/04/28 01:04:43;;;;;;;10.88;9.73;;;8.20;70.70;;;;;;5055234;28;20029;-65
2022/04/28 01:07:08;;;;;;;11.10;9.15;;;8.20;70.00;;;;;;5055338;28;20050;-63
2022/04/28 01:09:36;;;;;;;11.80;9.50;;;8.10;70.00;;;;;;5055512;28;20049;-65
2022/04/28 01:12:14;;;;;;;11.88;9.40;;;8.10;70.20;;;;;;5054497;28;20035;-65
2022/04/28 01:14:44;;;;;;;12.73;10.00;;;8.00;70.70;;;;;;5058604;28;20036;-65
2022/04/28 01:17:10;;;;;;;12.85;10.23;;;8.00;70.40;;;;;;5058375;28;20032;-65
2022/04/28 01:19:37;;;;;;;11.50;9.48;;;8.00;70.30;;;;;;5057650;28;20033;-64
2022/04/28 01:22:04;;;;;;;16.25;10.35;;;7.90;70.30;;;;;;5059516;28;20032;-64
2022/04/28 01:24:31;;;;;;;11.95;9.65;;;7.90;70.20;;;;;;5054136;28;20067;-65
2022/04/28 01:26:58;;;;;;;12.45;9.85;;;7.90;70.40;;;;;;5056785;28;20040;-65
2022/04/28 01:29:24;;;;;;;12.43;10.18;;;7.80;70.40;;;;;;5058582;28;20033;-65
2022/04/28 01:31:50;;;;;;;15.45;10.43;;;7.80;70.30;;;;;;5057069;28;20507;-64
2022/04/28 01:34:16;;;;;;;12.93;10.30;;;7.70;70.40;;;;;;5054328;28;20033;-65
2022/04/28 01:36:41;;;;;;;14.02;10.43;;;7.60;70.40;;;;;;5057739;28;20409;-63
2022/04/28 01:39:08;;;;;;;15.30;10.52;;;7.60;70.60;;;;;;5053938;28;20044;-66
2022/04/28 01:41:34;;;;;;;12.90;10.23;;;7.50;70.80;;;;;;5053789;28;20762;-65
2022/04/28 01:44:00;;;;;;;13.77;10.68;;;7.50;70.70;;;;;;5055507;28;20230;-65
2022/04/28 01:46:26;;;;;;;13.68;11.00;;;7.50;70.90;;;;;;5054785;28;20039;-64
2022/04/28 01:48:51;;;;;;;14.77;11.45;;;7.40;70.80;;;;;;5057315;28;20025;-65
2022/04/28 01:56:45;;;;;;;16.47;12.07;;;7.20;71.00;;;;;;5054095;28;20182;-65
2022/04/28 01:59:11;;;;;;;17.25;12.75;;;7.20;71.20;;;;;;5053312;28;20378;-63
2022/04/28 02:01:37;;;;;;;15.65;12.35;;;7.10;71.30;;;;;;5054529;28;20028;-63
2022/04/28 02:04:03;;;;;;;18.50;12.95;;;7.10;71.60;;;;;;5052831;28;20045;-64
2022/04/28 02:06:28;;;;;;;16.63;12.70;;;7.00;71.80;;;;;;5055066;28;20037;-65
2022/04/28 02:08:54;;;;;;;17.23;13.13;;;6.90;72.00;;;;;;5055670;28;20047;-65
2022/04/28 02:11:19;;;;;;;17.55;12.65;;;6.90;72.30;;;;;;5055753;28;20040;-65
2022/04/28 02:13:45;;;;;;;19.00;13.63;;;6.90;72.30;;;;;;5052393;28;20029;-65
2022/04/28 02:16:11;;;;;;;17.83;12.93;;;6.90;72.30;;;;;;5055168;28;20835;-65
2022/04/28 02:18:37;;;;;;;18.20;13.35;;;6.80;72.30;;;;;;5053703;28;20033;-65
2022/04/28 02:21:02;;;;;;;18.00;13.50;;;6.80;72.40;;;;;;5056717;28;20025;-64
2022/04/28 02:23:28;;;;;;;17.38;13.05;;;6.70;72.50;;;;;;5055401;28;20689;-62
2022/04/28 02:25:54;;;;;;;17.75;12.80;;;6.70;72.60;;;;;;5055861;28;20061;-64
2022/04/28 02:28:19;;;;;;;15.65;12.10;;;6.70;73.00;;;;;;5054036;28;20025;-64
2022/04/28 02:30:45;;;;;;;17.33;12.73;;;6.70;73.20;;;;;;5054408;28;20065;-65
2022/04/28 02:33:11;;;;;;;16.05;12.30;;;6.70;73.50;;;;;;5056056;28;20667;-63
2022/04/28 02:35:37;;;;;;;18.23;13.32;;;6.70;73.50;;;;;;5055038;28;20032;-65
2022/04/28 02:38:03;;;;;;;19.70;14.38;;;6.70;73.30;;;;;;5055897;28;20494;-65
2022/04/28 02:40:30;;;;;;;18.73;13.77;;;6.80;73.50;;;;;;5055077;28;20503;-65
2022/04/28 02:42:55;;;;;;;21.05;14.32;;;6.80;74.00;;;;;;5055530;28;20036;-63
2022/04/28 02:45:21;;;;;;;18.35;13.45;;;6.80;74.10;;;;;;5051940;28;20501;-61
2022/04/28 02:47:46;;;;;;;19.48;14.43;;;6.80;74.10;;;;;;5054051;28;20052;-65
2022/04/28 02:50:12;;;;;;;18.67;13.55;;;6.80;74.00;;;;;;5056761;28;20040;-64
2022/04/28 02:52:39;;;;;;;19.92;14.43;;;6.80;74.20;;;;;;5055280;28;20419;-64
2022/04/28 02:55:05;;;;;;;20.08;14.32;;;6.80;74.20;;;;;;5055936;28;20119;-64
2022/04/28 02:57:31;;;;;;;18.83;14.20;;;6.90;74.30;;;;;;5053132;28;20044;-63
2022/04/28 02:59:57;;;;;;;19.98;14.70;;;6.90;74.20;;;;;;5054085;28;20391;-64
2022/04/28 03:02:24;;;;;;;21.10;15.48;;;6.90;74.00;;;;;;5053388;28;20025;-63
2022/04/28 03:04:50;;;;;;;19.38;14.57;;;7.00;74.00;;;;;;5054148;28;20037;-65
2022/04/28 03:10:46;;;;;;;17.13;13.20;;;6.90;73.70;;;;;;5051871;28;20108;-65
2022/04/28 03:13:12;;;;;;;19.65;12.23;;;6.90;73.30;;;;;;5028447;28;20039;-64
2022/04/28 03:15:39;;;;;;;17.40;12.77;;;6.80;72.90;;;;;;5056797;28;20033;-63
2022/04/28 03:18:05;;;;;;;17.75;12.30;;;6.80;72.90;;;;;;5056026;28;20029;-64
2022/04/28 03:20:31;;;;;;;15.88;12.20;;;6.80;73.00;;;;;;5056208;28;20496;-63
2022/04/28 03:22:56;;;;;;;16.30;12.23;;;6.70;73.00;;;;;;5056288;28;20494;-65
2022/04/28 03:25:22;;;;;;;17.70;12.68;;;6.70;72.70;;;;;;5060569;28;20037;-64
2022/04/28 03:27:48;;;;;;;17.05;12.13;;;6.60;72.40;;;;;;5054179;28;20036;-64
2022/04/28 03:30:13;;;;;;;17.00;12.43;;;6.60;72.40;;;;;;5052558;28;20123;-63
2022/04/28 03:32:39;;;;;;;18.15;13.50;;;6.50;72.40;;;;;;5054502;28;20443;-65
2022/04/28 03:35:05;;;;;;;17.80;12.57;;;6.50;72.50;;;;;;5053653;28;20115;-62
2022/04/28 03:37:30;;;;;;;16.83;12.63;;;6.50;72.70;;;;;;5053745;28;20045;-64
2022/04/28 03:39:56;;;;;;;18.45;12.88;;;6.40;72.60;;;;;;5054257;28;20464;-65
2022/04/28 03:42:22;;;;;;;19.08;13.57;;;6.40;72.90;;;;;;5053874;28;20124;-64
2022/04/28 03:44:48;;;;;;;19.25;13.65;;;6.30;73.00;;;;;;5052189;28;22164;-65
2022/04/28 03:47:13;;;;;;;18.60;13.82;;;6.30;73.00;;;;;;5054386;28;20025;-64
2022/04/28 03:49:39;;;;;;;21.42;13.82;;;6.40;72.90;;;;;;5049815;28;20536;-64
2022/04/28 03:52:05;;;;;;;17.52;13.40;;;6.40;72.90;;;;;;5054814;28;20032;-65
2022/04/28 03:54:31;;;;;;;18.42;13.07;;;6.30;72.80;;;;;;5053265;28;20035;-65
2022/04/28 03:56:56;;;;;;;17.20;13.23;;;6.30;72.70;;;;;;5055953;28;20029;-64
2022/04/28 03:59:22;;;;;;;17.98;13.40;;;6.30;72.70;;;;;;5052573;28;20039;-65
2022/04/28 04:01:49;;;;;;;17.35;12.80;;;6.30;72.70;;;;;;5053982;28;20037;-64
2022/04/28 04:04:14;;;;;;;18.88;13.75;;;6.30;72.70;;;;;;5053707;28;20048;-65
2022/04/28 04:06:40;;;;;;;18.75;13.20;;;6.30;72.70;;;;;;5052845;28;20273;-65
2022/04/28 04:09:05;;;;;;;18.63;13.23;;;6.30;72.60;;;;;;5054953;28;20029;-65
2022/04/28 04:11:31;;;;;;;19.30;13.85;;;6.30;72.60;;;;;;5053613;28;20044;-65
2022/04/28 04:13:57;;;;;;;19.77;14.02;;;6.30;72.70;;;;;;5058003;28;20039;-64
2022/04/28 04:16:22;;;;;;;17.17;12.93;;;6.30;72.60;;;;;;5056587;28;20253;-64
2022/04/28 04:18:48;;;;;;;17.08;13.13;;;6.20;72.70;;;;;;5056903;28;20048;-64
2022/04/28 04:21:13;;;;;;;18.05;13.15;;;6.20;72.70;;;;;;5057690;28;20036;-64
2022/04/28 04:23:39;;;;;;;17.80;13.52;;;6.20;72.70;;;;;;5057640;28;20040;-65
2022/04/28 04:26:05;;;;;;;20.10;13.68;;;6.20;72.70;;;;;;5058652;28;20048;-67
2022/04/28 04:28:30;;;;;;;19.17;13.45;;;6.20;72.90;;;;;;5055180;28;20421;-64
2022/04/28 04:33:41;;;;;;;25.02;14.50;;;6.20;73.30;;;;;;5056220;28;20195;-64
2022/04/28 04:36:06;;;;;;;24.38;14.77;;;6.20;73.50;;;;;;5060705;28;20549;-64
2022/04/28 04:38:32;;;;;;;21.10;14.05;;;6.20;73.70;;;;;;5058556;28;20032;-64
2022/04/28 04:40:58;;;;;;;24.30;15.13;;;6.20;73.80;;;;;;5058971;28;20032;-65
2022/04/28 04:43:23;;;;;;;23.63;15.50;;;6.20;73.90;;;;;;5057981;28;20028;-65
2022/04/28 04:45:49;;;;;;;23.30;14.80;;;6.20;73.90;;;;;;5059177;28;20627;-65
2022/04/28 04:48:14;;;;;;;20.38;14.05;;;6.20;74.00;;;;;;5060494;28;20509;-64
2022/04/28 04:50:40;;;;;;;25.67;15.57;;;6.20;74.00;;;;;;5059075;28;20047;-65
2022/04/28 04:53:07;;;;;;;23.80;15.40;;;6.20;74.00;;;;;;5058330;28;20033;-64
2022/04/28 04:55:34;;;;;;;25.83;15.20;;;6.20;74.10;;;;;;5058599;28;20045;-64
2022/04/28 04:58:00;;;;;;;23.27;15.57;;;6.20;74.20;;;;;;5056607;28;20132;-64
2022/04/28 05:00:26;;;;;;;32.35;17.10;;;6.20;74.30;;;;;;5058072;28;20463;-64
2022/04/28 05:02:51;;;;;;;32.78;17.15;;;6.20;74.40;;;;;;5056925;28;20495;-65
2022/04/28 05:05:17;;;;;;;30.38;15.88;;;6.20;74.50;;;;;;5059217;28;20040;-64
2022/04/28 05:07:43;;;;;;;26.55;15.73;;;6.20;74.60;;;;;;5057553;28;20112;-64
2022/04/28 05:10:09;;;;;;;30.98;16.98;;;6.20;74.80;;;;;;5057129;28;20033;-64
2022/04/28 05:12:35;;;;;;;25.40;15.82;;;6.20;74.80;;;;;;5053901;28;20123;-65
2022/04/28 05:15:00;;;;;;;29.23;18.00;;;6.20;75.10;;;;;;5057164;28;20171;-65
2022/04/28 05:17:26;;;;;;;34.30;17.73;;;6.20;75.30;;;;;;5057105;28;20101;-63
2022/04/28 05:19:52;;;;;;;32.28;18.08;;;6.20;75.50;;;;;;5057226;28;20043;-65
2022/04/28 05:22:18;;;;;;;29.38;16.48;;;6.30;76.00;;;;;;5058449;28;20071;-64
2022/04/28 05:24:43;;;;;;;26.95;17.05;;;6.30;76.30;;;;;;5058043;28;20186;-65
2022/04/28 05:27:10;;;;;;;26.95;15.85;;;6.30;76.60;;;;;;5057943;28;20037;-64
2022/04/28 05:29:36;;;;;;;22.20;14.55;;;6.40;76.90;;;;;;5058235;28;20493;-64
2022/04/28 05:32:01;;;;;;;21.25;15.13;;;6.40;77.30;;;;;;5056599;28;20036;-64
2022/04/28 05:34:27;;;;;;;24.08;15.13;;;6.50;77.80;;;;;;5060574;28;20039;-64
2022/04/28 05:36:53;;;;;;;21.63;14.35;;;6.60;78.10;;;;;;5055619;28;20052;-64
2022/04/28 05:39:18;;;;;;;21.63;14.95;;;6.60;79.00;;;;;;5054884;28;20041;-65
2022/04/28 05:41:44;;;;;;;22.17;15.60;;;6.70;79.70;;;;;;5056267;28;20029;-63
2022/04/28 05:46:54;;;;;;;23.00;16.02;;;6.90;80.90;;;;;;5054793;28;20089;-64
2022/04/28 05:49:21;;;;;;;22.20;15.77;;;6.90;81.30;;;;;;5059355;28;20048;-62
2022/04/28 05:51:46;;;;;;;23.67;15.50;;;7.00;80.90;;;;;;5056824;28;20032;-64
2022/04/28 05:54:12;;;;;;;19.60;14.75;;;7.10;80.70;;;;;;5057359;28;20033;-64
2022/04/28 05:56:38;;;;;;;21.70;15.38;;;7.20;80.80;;;;;;5056276;28;20025;-63
2022/04/28 05:59:03;;;;;;;20.45;14.80;;;7.30;80.80;;;;;;5055673;28;20040;-63
2022/04/28 06:01:29;;;;;;;21.85;15.77;;;7.40;80.70;;;;;;5056116;28;20038;-64
2022/04/28 06:03:55;;;;;;;20.48;15.35;;;7.50;81.10;;;;;;5055767;28;20037;-64
2022/04/28 06:06:21;;;;;;;21.88;15.57;;;7.60;80.90;;;;;;5056323;28;20031;-64
2022/04/28 06:08:46;;;;;;;22.88;14.70;;;7.70;81.80;;;;;;5060645;28;20040;-64
2022/04/28 06:11:12;;;;;;;20.08;14.00;;;7.70;81.00;;;;;;5056636;28;20103;-63
2022/04/28 06:13:38;;;;;;;19.38;14.88;;;7.80;80.70;;;;;;5062488;28;20039;-64
2022/04/28 06:16:04;;;;;;;22.65;15.10;;;7.90;80.60;;;;;;5054805;28;20506;-64
2022/04/28 06:18:30;;;;;;;20.50;15.20;;;8.00;80.60;;;;;;5054541;28;20409;-62
2022/04/28 06:20:56;;;;;;;21.27;15.88;;;8.10;80.50;;;;;;5056667;28;20038;-64
2022/04/28 06:23:21;;;;;;;21.42;14.82;;;8.10;80.40;;;;;;5057357;28;20041;-64
2022/04/28 06:25:47;;;;;;;21.23;15.07;;;8.30;80.60;;;;;;5056527;28;20112;-64
2022/04/28 06:28:16;;;;;;;21.25;15.38;;;8.30;80.70;;;;;;5056914;28;20037;-64
2022/04/28 06:30:41;;;;;;;21.95;15.35;;;8.40;80.60;;;;;;5055684;28;20136;-64
2022/04/28 06:33:08;;;;;;;22.00;16.30;;;8.50;80.60;;;;;;5056285;28;20561;-64
2022/04/28 06:35:34;;;;;;;21.58;16.05;;;8.60;80.60;;;;;;5054820;28;20479;-64
2022/04/28 06:38:01;;;;;;;20.88;15.23;;;8.70;80.90;;;;;;5055578;28;20044;-64
2022/04/28 06:40:27;;;;;;;21.17;14.82;;;8.80;80.80;;;;;;5055529;28;20029;-65
2022/04/28 06:42:52;;;;;;;22.65;16.15;;;8.90;80.60;;;;;;5056485;28;20047;-64
2022/04/28 06:45:18;;;;;;;21.98;15.85;;;9.00;80.40;;;;;;5055373;28;20453;-65
2022/04/28 06:47:44;;;;;;;25.95;16.85;;;9.10;80.40;;;;;;5056282;28;20067;-62
2022/04/28 06:50:11;;;;;;;21.25;15.35;;;9.20;80.20;;;;;;5055310;28;20110;-64
2022/04/28 06:52:37;;;;;;;24.65;16.75;;;9.30;80.00;;;;;;5057032;28;20036;-64
2022/04/28 06:55:04;;;;;;;22.42;15.90;;;9.40;79.90;;;;;;5056647;28;20032;-64
2022/04/28 06:57:30;;;;;;;20.25;15.60;;;9.50;79.80;;;;;;5056154;28;20029;-64
2022/04/28 06:59:56;;;;;;;22.25;16.00;;;9.60;79.60;;;;;;5054974;28;20056;-62
2022/04/28 07:02:21;;;;;;;21.02;15.55;;;9.80;79.60;;;;;;5055083;28;20044;-64
2022/04/28 07:04:48;;;;;;;22.05;15.57;;;9.80;79.30;;;;;;5052228;28;20037;-64
2022/04/28 07:07:14;;;;;;;21.65;16.10;;;9.90;79.30;;;;;;5056576;28;20525;-64
2022/04/28 07:09:40;;;;;;;22.27;15.30;;;10.00;79.30;;;;;;5057770;28;20037;-64
2022/04/28 07:12:06;;;;;;;21.05;15.05;;;10.10;79.20;;;;;;5055085;28;20051;-64
2022/04/28 07:14:34;;;;;;;18.05;13.10;;;10.30;79.00;;;;;;5055963;28;20029;-64
2022/04/28 07:16:59;;;;;;;17.77;13.38;;;10.40;78.90;;;;;;5057498;28;20127;-64
2022/04/28 07:19:25;;;;;;;16.92;12.90;;;10.50;78.40;;;;;;5056519;28;20116;-64
2022/04/28 07:21:51;;;;;;;16.48;11.70;;;10.60;78.30;;;;;;5056762;28;20065;-64
2022/04/28 07:24:17;;;;;;;14.82;11.43;;;10.70;77.90;;;;;;5056240;28;20036;-65
2022/04/28 07:26:42;;;;;;;14.90;10.75;;;10.80;77.60;;;;;;5056658;28;20039;-64
2022/04/28 07:29:08;;;;;;;14.07;11.18;;;10.90;77.30;;;;;;5056102;28;20552;-64
2022/04/28 07:31:33;;;;;;;14.77;10.70;;;11.00;77.00;;;;;;5055831;28;20028;-64
2022/04/28 07:33:59;;;;;;;13.93;10.85;;;11.20;76.60;;;;;;5055564;28;20090;-65
2022/04/28 07:36:25;;;;;;;13.27;9.68;;;11.30;76.40;;;;;;5055924;28;20506;-64
2022/04/28 07:38:51;;;;;;;11.77;9.40;;;11.40;75.80;;;;;;5054964;28;20040;-65
2022/04/28 07:41:16;;;;;;;13.25;10.20;;;11.50;75.40;;;;;;5058051;28;20064;-64
2022/04/28 07:43:42;;;;;;;11.32;9.13;;;11.60;74.80;;;;;;5054860;28;20100;-64
2022/04/28 07:46:09;;;;;;;13.00;8.43;;;11.70;74.40;;;;;;5057632;28;20036;-64
2022/04/28 07:48:34;;;;;;;11.95;9.18;;;11.80;73.70;;;;;;5059823;28;20406;-65
2022/04/28 07:51:00;;;;;;;10.35;8.82;;;11.90;73.20;;;;;;5058503;28;20035;-65
2022/04/28 07:53:26;;;;;;;12.43;9.05;;;12.00;72.80;;;;;;5062764;28;20055;-64
2022/04/28 07:58:37;;;;;;;10.47;8.47;;;12.20;72.50;;;;;;5060762;28;20062;-65
2022/04/28 08:01:03;;;;;;;10.68;8.25;;;12.30;72.10;;;;;;5060568;28;20086;-64
2022/04/28 08:03:29;;;;;;;9.95;8.20;;;12.40;71.80;;;;;;5058036;28;20079;-63
2022/04/28 08:05:54;;;;;;;9.45;8.18;;;12.50;71.50;;;;;;5063669;28;20029;-65
2022/04/28 08:08:20;;;;;;;10.05;8.68;;;12.60;71.00;;;;;;5060089;28;20037;-65
2022/04/28 08:10:47;;;;;;;9.77;8.43;;;12.70;70.90;;;;;;5055887;28;20060;-65
2022/04/28 08:13:12;;;;;;;10.48;8.45;;;12.80;70.70;;;;;;5058785;28;20037;-65
2022/04/28 08:15:38;;;;;;;10.98;8.70;;;12.90;70.80;;;;;;5060586;28;20032;-65
2022/04/28 08:18:04;;;;;;;10.80;8.38;;;13.00;71.00;;;;;;5060459;28;20086;-65
2022/04/28 08:20:30;;;;;;;10.88;8.52;;;13.10;70.70;;;;;;5061447;28;20406;-65
2022/04/28 08:22:56;;;;;;;9.30;7.43;;;13.20;70.00;;;;;;5058729;28;20451;-64
2022/04/28 08:25:22;;;;;;;9.20;8.13;;;13.30;69.70;;;;;;5058869;28;20120;-65
2022/04/28 08:27:47;;;;;;;9.50;8.15;;;13.40;69.20;;;;;;5060246;28;20029;-64
2022/04/28 08:30:14;;;;;;;9.82;7.75;;;13.50;69.00;;;;;;5060393;28;20632;-65
2022/04/28 08:32:40;;;;;;;7.82;7.03;;;13.60;69.00;;;;;;5059658;28;20061;-65
2022/04/28 08:35:06;;;;;;;7.97;7.15;;;13.70;68.80;;;;;;5057321;28;20060;-66
2022/04/28 08:37:31;;;;;;;9.23;6.65;;;13.80;68.70;;;;;;5060423;28;20553;-64
2022/04/28 08:39:57;;;;;;;7.80;6.70;;;13.90;68.00;;;;;;5060075;28;20040;-65
2022/04/28 08:42:24;;;;;;;8.52;6.57;;;14.00;67.10;;;;;;5062444;28;20059;-65
2022/04/28 08:44:49;;;;;;;7.82;6.50;;;14.10;66.70;;;;;;5060156;28;20036;-64
2022/04/28 08:47:15;;;;;;;6.80;6.07;;;14.20;66.20;;;;;;5060519;28;20135;-65
2022/04/28 08:49:44;;;;;;;6.03;5.43;;;14.20;65.70;;;;;;5061665;28;20447;-64
2022/04/28 08:52:11;;;;;;;7.50;5.70;;;14.30;65.30;;;;;;5059850;28;20068;-65
2022/04/28 08:54:39;;;;;;;6.38;5.65;;;14.40;64.60;;;;;;5058488;28;20423;-65
2022/04/28 08:57:05;;;;;;;7.40;5.82;;;14.50;64.60;;;;;;5058690;28;20043;-65
2022/04/28 08:59:31;;;;;;;7.25;6.10;;;14.50;64.90;;;;;;5059796;28;20131;-65
2022/04/28 09:01:57;;;;;;;8.27;5.68;;;14.60;64.00;;;;;;5059818;28;20037;-65
2022/04/28 09:04:23;;;;;;;6.03;5.00;;;14.70;63.60;;;;;;5059861;28;22120;-65
2022/04/28 09:06:52;;;;;;;6.70;4.82;;;14.80;63.10;;;;;;5060791;28;20033;-65
2022/04/28 09:09:18;;;;;;;6.20;5.35;;;14.80;62.80;;;;;;5057094;28;20417;-64
2022/04/28 09:11:45;;;;;;;6.30;5.50;;;15.00;63.10;;;;;;5058653;28;20163;-65
2022/04/28 09:14:17;;;;;;;5.57;5.00;;;15.00;62.70;;;;;;5060063;28;20041;-65
2022/04/28 09:16:43;;;;;;;5.22;4.50;;;15.10;62.10;;;;;;5056973;28;20025;-64
2022/04/28 09:19:10;;;;;;;5.53;4.40;;;15.20;62.10;;;;;;5063429;28;20043;-64
2022/04/28 09:21:37;;;;;;;5.07;4.57;;;15.30;61.40;;;;;;5060351;28;20342;-64
2022/04/28 09:24:03;;;;;;;4.70;4.30;;;15.40;61.30;;;;;;5058843;28;20093;-65
2022/04/28 09:26:34;;;;;;;4.63;3.97;;;15.50;60.90;;;;;;5065317;28;20041;-64
2022/04/28 09:29:05;;;;;;;7.32;4.20;;;15.60;60.10;;;;;;5059646;28;20541;-65
2022/04/28 09:31:34;;;;;;;4.32;3.92;;;15.70;59.70;;;;;;5060962;28;20036;-64
2022/04/28 09:34:08;;;;;;;4.00;3.70;;;15.80;58.80;;;;;;5057847;28;22192;-64
2022/04/28 09:36:34;;;;;;;7.75;3.90;;;15.90;58.50;;;;;;5060675;28;20085;-65
2022/04/28 09:39:00;;;;;;;4.10;3.63;;;15.90;59.10;;;;;;5056844;28;20056;-65
2022/04/28 09:44:21;;;;;;;5.35;3.38;;;16.10;58.00;;;;;;5022721;28;20030;-64
2022/04/28 09:46:48;;;;;;;4.15;3.38;;;16.30;58.00;;;;;;5059073;28;20043;-65
2022/04/28 09:49:18;;;;;;;4.20;3.25;;;16.40;57.80;;;;;;5074243;28;20460;-65
2022/04/28 09:51:44;;;;;;;3.30;3.00;;;16.50;57.50;;;;;;5060097;28;20046;-65
2022/04/28 09:54:12;;;;;;;3.80;3.50;;;16.60;57.10;;;;;;5057678;28;20033;-65
2022/04/28 09:56:39;;;;;;;3.65;2.75;;;16.70;56.60;;;;;;5059919;28;20517;-65
2022/04/28 09:59:09;;;;;;;3.10;2.80;;;16.80;55.80;;;;;;5061069;28;20132;-65
2022/04/28 10:01:37;;;;;;;2.63;2.42;;;16.90;54.70;;;;;;5059348;28;20414;-65
2022/04/28 10:04:03;;;;;;;3.28;2.97;;;16.90;54.90;;;;;;5058749;28;20056;-65
2022/04/28 10:06:31;;;;;;;2.75;2.35;;;17.00;54.70;;;;;;5058183;28;20032;-65
2022/04/28 10:08:59;;;;;;;3.72;2.90;;;17.00;54.30;;;;;;5058982;28;20036;-64
2022/04/28 10:11:27;;;;;;;3.30;2.75;;;17.10;52.70;;;;;;5054171;28;20470;-65
2022/04/28 10:13:54;;;;;;;2.90;2.60;;;17.10;53.30;;;;;;5057553;28;20040;-64
2022/04/28 10:16:22;;;;;;;4.22;2.88;;;17.20;53.30;;;;;;5057541;28;20040;-64
2022/04/28 10:19:09;;;;;;;3.42;2.60;;;17.20;53.10;;;;;;5057284;28;20044;-64
2022/04/28 10:21:46;;;;;;;3.08;2.78;;;17.30;52.30;;;;;;5058006;28;20031;-63
2022/04/28 10:33:06;;;;;;;2.40;2.20;;;17.50;51.60;;;;;;5058032;28;20047;-65
2022/04/28 10:35:49;;;;;;;2.67;2.47;;;17.50;52.60;;;;;;5059193;28;20428;-65
2022/04/28 10:38:26;;;;;;;2.72;2.50;;;17.60;51.20;;;;;;5055862;28;20040;-65
2022/04/28 10:41:01;;;;;;;4.85;2.80;;;17.60;51.00;;;;;;5054642;28;20072;-63
2022/04/28 10:43:33;;;;;;;3.28;2.97;;;17.60;50.80;;;;;;5057193;28;20506;-65
2022/04/28 10:46:22;;;;;;;2.85;2.60;;;17.60;50.80;;;;;;5056310;28;20120;-64
2022/04/28 10:48:59;;;;;;;3.72;2.50;;;17.60;49.80;;;;;;5056260;28;20398;-65
2022/04/28 10:51:27;;;;;;;2.53;2.33;;;17.70;51.00;;;;;;5057496;28;20035;-65
2022/04/28 10:54:02;;;;;;;3.15;2.38;;;17.70;51.00;;;;;;5056994;28;20039;-64
2022/04/28 10:56:56;;;;;;;3.08;2.45;;;17.70;50.30;;;;;;5056592;28;20101;-64
2022/04/28 11:01:53;;;;;;;2.70;2.28;;;17.80;51.00;;;;;;5057938;28;20043;-66
2022/04/28 11:04:24;;;;;;;2.47;2.28;;;17.80;51.70;;;;;;5055201;28;20221;-65
2022/04/28 11:06:58;;;;;;;3.17;1.90;;;17.90;50.00;;;;;;5057224;28;20556;-64
2022/04/28 11:09:31;;;;;;;2.53;2.33;;;17.90;49.80;;;;;;5057087;28;20386;-65
2022/04/28 11:12:07;;;;;;;2.28;2.08;;;17.90;49.30;;;;;;5054157;28;20158;-65
2022/04/28 11:14:49;;;;;;;3.22;2.00;;;18.00;48.90;;;;;;5056114;28;20045;-64
2022/04/28 11:17:17;;;;;;;2.78;2.05;;;18.10;49.40;;;;;;5057862;28;20463;-65
2022/04/28 11:19:45;;;;;;;2.55;2.20;;;18.10;49.30;;;;;;5057375;28;20115;-65
2022/04/28 11:22:11;;;;;;;2.08;1.88;;;18.10;48.70;;;;;;5061300;28;20037;-65
2022/04/28 11:24:48;;;;;;;2.15;1.83;;;18.10;49.00;;;;;;5059116;28;20071;-64
2022/04/28 11:27:21;;;;;;;3.22;2.20;;;18.10;48.50;;;;;;5062316;28;20063;-65
2022/04/28 11:29:50;;;;;;;1.90;1.80;;;18.20;48.00;;;;;;5061023;28;20139;-64
2022/04/28 11:32:16;;;;;;;2.45;2.00;;;18.20;48.60;;;;;;5060373;28;20024;-65
2022/04/28 11:34:44;;;;;;;3.72;2.47;;;18.20;48.80;;;;;;5061682;28;20033;-65
2022/04/28 11:37:22;;;;;;;2.00;1.90;;;18.20;48.40;;;;;;5060371;28;20390;-65
2022/04/28 11:39:56;;;;;;;5.88;2.03;;;18.30;47.60;;;;;;5061566;28;20037;-65
2022/04/28 11:42:24;;;;;;;2.20;2.00;;;18.30;48.10;;;;;;5061574;28;20033;-65
2022/04/28 11:44:52;;;;;;;2.33;2.13;;;18.30;47.80;;;;;;5043738;28;20047;-64
2022/04/28 11:47:23;;;;;;;2.25;1.90;;;18.40;47.60;;;;;;5060575;28;20116;-65
2022/04/28 11:49:56;;;;;;;2.33;2.10;;;18.40;46.60;;;;;;5060166;28;20053;-65
2022/04/28 11:52:28;;;;;;;1.70;1.60;;;18.40;47.30;;;;;;5061416;28;20192;-64
2022/04/28 11:54:57;;;;;;;2.13;1.90;;;18.40;46.80;;;;;;5060585;28;20589;-64
2022/04/28 11:57:23;;;;;;;2.15;1.95;;;18.30;47.00;;;;;;5061130;28;20032;-65
2022/04/28 11:59:49;;;;;;;3.47;2.10;;;18.40;47.50;;;;;;5062091;28;20044;-65
2022/04/28 12:02:34;;;;;;;3.30;2.10;;;18.40;47.20;;;;;;5060903;28;20040;-65
2022/04/28 12:05:14;;;;;;;2.08;1.95;;;18.40;46.10;;;;;;5059024;28;20498;-65
2022/04/28 12:07:42;;;;;;;2.22;2.03;;;18.50;47.00;;;;;;5060128;28;20048;-65
2022/04/28 12:15:49;;;;;;;2.28;2.08;;;18.50;47.20;;;;;;5061756;28;20035;-65
2022/04/28 12:21:12;;;;;;;2.83;2.10;;;18.60;46.90;;;;;;5061737;28;20047;-65
2022/04/28 12:23:55;;;;;;;2.35;2.15;;;18.60;46.60;;;;;;5076500;28;20112;-66
2022/04/28 12:26:24;;;;;;;2.88;1.98;;;18.60;46.00;;;;;;5060092;28;20029;-65
2022/04/28 12:28:50;;;;;;;2.55;2.10;;;18.60;46.60;;;;;;5059642;28;20108;-65
2022/04/28 12:31:27;;;;;;;2.78;2.10;;;18.60;46.40;;;;;;5060687;28;20493;-65
2022/04/28 12:33:54;;;;;;;2.17;1.98;;;18.60;45.30;;;;;;5058168;28;20106;-65
2022/04/28 12:36:19;;;;;;;2.80;2.10;;;18.60;46.20;;;;;;5058338;28;20036;-65
2022/04/28 12:38:53;;;;;;;2.65;2.20;;;18.60;46.30;;;;;;5059954;28;20041;-64
2022/04/28 12:41:22;;;;;;;4.35;2.47;;;18.60;46.10;;;;;;5065041;28;20064;-63
2022/04/28 12:43:49;;;;;;;3.38;2.35;;;18.70;45.90;;;;;;5060190;28;20074;-65
2022/04/28 12:46:20;;;;;;;6.18;2.30;;;18.70;46.70;;;;;;5058534;28;20033;-65
2022/04/28 12:48:56;;;;;;;11.15;2.20;;;18.70;45.90;;;;;;5059235;28;20071;-64
2022/04/28 12:51:24;;;;;;;2.70;2.10;;;18.70;45.30;;;;;;5058949;28;20041;-64
2022/04/28 12:53:51;;;;;;;2.78;2.10;;;18.70;46.00;;;;;;5060484;28;20524;-65
2022/04/28 12:56:27;;;;;;;2.63;2.40;;;18.80;46.10;;;;;;5059721;28;20044;-65
2022/04/28 12:58:56;;;;;;;4.13;2.40;;;18.80;45.80;;;;;;5058141;28;20042;-65
2022/04/28 13:01:22;;;;;;;3.13;2.38;;;18.80;45.50;;;;;;5059906;28;20386;-65
2022/04/28 13:03:56;;;;;;;4.95;2.45;;;18.80;45.10;;;;;;5058340;28;20090;-65
2022/04/28 13:06:27;;;;;;;3.60;2.22;;;18.80;44.90;;;;;;5059619;28;20513;-65
2022/04/28 13:08:54;;;;;;;3.38;2.25;;;18.80;45.00;;;;;;5059726;28;20051;-65
2022/04/28 13:11:34;;;;;;;5.40;2.40;;;18.80;45.00;;;;;;5058239;28;20048;-64
2022/04/28 13:14:01;;;;;;;2.42;2.22;;;18.80;44.90;;;;;;5060093;28;20040;-65
2022/04/28 13:16:28;;;;;;;2.70;2.10;;;18.80;45.10;;;;;;5056964;28;20037;-65
2022/04/28 13:18:54;;;;;;;2.50;2.30;;;18.80;45.60;;;;;;5061435;28;20118;-65
2022/04/28 13:21:20;;;;;;;3.60;2.67;;;18.90;45.70;;;;;;5058225;28;20124;-65
2022/04/28 13:23:46;;;;;;;3.25;2.78;;;18.90;45.20;;;;;;5059977;28;20115;-64